createdAt,value
2019-01-12T00:00:02.707Z,22.4
2019-01-12T00:00:53.043Z,22.3
2019-01-12T00:01:43.105Z,22.2
2019-01-12T00:02:32.576Z,22.1
2019-01-12T00:03:23.491Z,22.1
2019-01-12T00:04:12.976Z,22.1
2019-01-12T00:05:03.318Z,22.1
2019-01-12T00:05:53.681Z,22.3
2019-01-12T00:06:43.768Z,22.3
2019-01-12T00:07:33.545Z,22.3
2019-01-12T00:08:23.578Z,22.4
2019-01-12T00:09:14.881Z,22.5
2019-01-12T00:10:03.173Z,22.5
2019-01-12T00:10:53.234Z,22.6
2019-01-12T00:11:43.561Z,22.6
2019-01-12T00:12:33.333Z,22.7
2019-01-12T00:13:23.190Z,22.8
2019-01-12T00:14:14.013Z,22.8
2019-01-12T00:15:03.306Z,22.8
2019-01-12T00:15:53.310Z,22.8
2019-01-12T00:34:15.976Z,23.1
2019-01-12T00:35:05.734Z,23.1
2019-01-12T00:35:56.324Z,23.1
2019-01-12T00:36:46.092Z,23.1
2019-01-12T00:37:35.914Z,23.1
2019-01-12T00:38:26.196Z,23.1
2019-01-12T00:39:16.039Z,23.1
2019-01-12T00:40:06.343Z,23.1
2019-01-12T00:40:56.365Z,23.1
2019-01-12T00:41:45.866Z,23.2
2019-01-12T00:42:36.483Z,23.2
2019-01-12T00:43:26.851Z,23.2
2019-01-12T00:44:15.483Z,23.2
2019-01-12T00:45:06.411Z,23.2
2019-01-12T00:45:56.431Z,23.2
2019-01-12T00:46:46.488Z,23.3
2019-01-12T00:47:38.468Z,23.3
2019-01-12T00:48:26.371Z,23.2
2019-01-12T00:49:16.978Z,23.2
2019-01-12T00:50:06.720Z,23.2
2019-01-12T00:50:57.047Z,23.2
2019-01-12T00:51:46.873Z,23.1
2019-01-12T00:52:37.148Z,23.1
2019-01-12T00:53:26.695Z,23.1
2019-01-12T00:54:17.275Z,23.1
2019-01-12T00:55:07.346Z,23.1
2019-01-12T00:55:57.395Z,23.1
2019-01-12T00:56:47.177Z,23.1
2019-01-12T00:57:37.803Z,23.1
2019-01-12T00:58:27.557Z,23.1
2019-01-12T00:59:17.413Z,23.1
2019-01-12T01:00:07.957Z,23.1
2019-01-12T01:00:57.257Z,23.1
2019-01-12T01:01:47.639Z,23
2019-01-12T01:02:37.622Z,23
2019-01-12T01:03:26.839Z,23
2019-01-12T01:04:18.020Z,23
2019-01-12T01:05:07.027Z,23
2019-01-12T01:05:57.327Z,23
2019-01-12T01:06:46.806Z,23
2019-01-12T01:07:38.447Z,22.9
2019-01-12T01:08:27.672Z,22.9
2019-01-12T01:09:17.906Z,22.9
2019-01-12T01:10:07.949Z,22.9
2019-01-12T01:10:58.149Z,22.9
2019-01-12T01:11:47.629Z,22.9
2019-01-12T01:12:38.248Z,22.9
2019-01-12T01:13:28.329Z,22.9
2019-01-12T01:14:18.912Z,23
2019-01-12T01:15:09.056Z,23
2019-01-12T01:15:57.981Z,23
2019-01-12T01:16:48.329Z,22.9
2019-01-12T01:17:38.389Z,23
2019-01-12T01:18:28.151Z,22.9
2019-01-12T01:19:17.663Z,23
2019-01-12T01:20:09.041Z,23
2019-01-12T01:20:58.526Z,23
2019-01-12T01:21:48.323Z,23.1
2019-01-12T01:22:39.203Z,23.1
2019-01-12T01:23:28.976Z,23.1
2019-01-12T01:24:19.581Z,23.1
2019-01-12T01:25:09.490Z,23.1
2019-01-12T01:25:59.728Z,23.1
2019-01-12T01:26:49.757Z,23.1
2019-01-12T01:27:39.608Z,23.1
2019-01-12T01:28:29.600Z,23.2
2019-01-12T01:29:19.945Z,23.1
2019-01-12T01:30:09.718Z,23.2
2019-01-12T01:30:59.265Z,23.2
2019-01-12T01:31:49.559Z,23.1
2019-01-12T01:32:39.673Z,23.1
2019-01-12T01:33:34.630Z,23.1
2019-01-12T01:34:19.983Z,23.1
2019-01-12T01:35:09.548Z,23.1
2019-01-12T01:36:00.657Z,23.1
2019-01-12T01:36:50.166Z,23.1
2019-01-12T01:37:40.772Z,23.1
2019-01-12T01:38:30.028Z,23.1
2019-01-12T01:39:20.060Z,23.1
2019-01-12T01:40:09.820Z,23.1
2019-01-12T01:41:00.759Z,23.1
2019-01-12T01:41:50.018Z,23.1
2019-01-12T01:42:40.101Z,23.1
2019-01-12T01:43:30.139Z,23.1
2019-01-12T01:44:19.419Z,23.1
2019-01-12T01:45:10.580Z,23.1
2019-01-12T01:46:00.069Z,23.2
2019-01-12T01:46:50.587Z,23.2
2019-01-12T01:47:40.949Z,23.2
2019-01-12T01:48:31.510Z,23.2
2019-01-12T01:49:20.732Z,23.2
2019-01-12T01:50:11.324Z,23.2
2019-01-12T01:51:01.161Z,23.2
2019-01-12T01:51:50.904Z,23.2
2019-01-12T01:52:41.229Z,23.2
2019-01-12T01:53:30.751Z,23.2
2019-01-12T01:54:21.887Z,23.2
2019-01-12T01:55:10.899Z,23.3
2019-01-12T01:56:00.901Z,23.3
2019-01-12T01:56:50.726Z,23.2
2019-01-12T01:57:41.613Z,23.2
2019-01-12T01:58:31.381Z,23.2
2019-01-12T01:59:21.966Z,23.2
2019-01-12T02:00:11.764Z,23.2
2019-01-12T02:01:02.376Z,23.2
2019-01-12T02:01:51.378Z,23.1
2019-01-12T02:02:41.898Z,23.1
2019-01-12T02:03:32.260Z,23.1
2019-01-12T02:04:22.024Z,23.1
2019-01-12T02:05:11.809Z,23.1
2019-01-12T02:06:00.801Z,23.1
2019-01-12T02:06:52.485Z,23.1
2019-01-12T02:07:42.563Z,23.1
2019-01-12T02:08:32.657Z,23.1
2019-01-12T02:09:22.345Z,23.1
2019-01-12T02:10:13.003Z,23.1
2019-01-12T02:11:02.196Z,23
2019-01-12T02:11:53.110Z,23
2019-01-12T02:12:42.393Z,23
2019-01-12T02:13:31.828Z,23
2019-01-12T02:14:22.687Z,22.9
2019-01-12T02:15:12.513Z,22.9
2019-01-12T02:16:02.819Z,23
2019-01-12T02:16:52.325Z,22.9
2019-01-12T02:17:42.965Z,22.9
2019-01-12T02:18:32.722Z,23
2019-01-12T02:19:23.091Z,23
2019-01-12T02:20:12.895Z,23
2019-01-12T02:21:03.170Z,23
2019-01-12T02:21:53.215Z,23
2019-01-12T02:22:43.565Z,23
2019-01-12T02:23:33.323Z,23
2019-01-12T02:24:23.414Z,23
2019-01-12T02:25:13.464Z,23
2019-01-12T02:26:04.069Z,23.1
2019-01-12T02:26:52.493Z,23.1
2019-01-12T02:27:43.319Z,23.1
2019-01-12T02:28:34.227Z,23.1
2019-01-12T02:29:23.714Z,23.1
2019-01-12T02:30:13.570Z,23.1
2019-01-12T02:31:04.143Z,23.1
2019-01-12T02:31:53.406Z,23.1
2019-01-12T02:32:44.043Z,23.1
2019-01-12T02:33:34.597Z,23.1
2019-01-12T02:34:23.934Z,23.1
2019-01-12T02:35:14.159Z,23.1
2019-01-12T02:36:03.921Z,23.1
2019-01-12T02:36:54.934Z,23.2
2019-01-12T02:37:44.614Z,23.2
2019-01-12T02:38:34.385Z,23.1
2019-01-12T02:39:24.714Z,23.1
2019-01-12T02:40:14.077Z,23.1
2019-01-12T02:41:03.521Z,23.1
2019-01-12T02:41:54.604Z,23.1
2019-01-12T02:42:44.394Z,23.1
2019-01-12T02:43:33.608Z,23.1
2019-01-12T02:44:24.772Z,23.1
2019-01-12T02:45:14.846Z,23.1
2019-01-12T02:46:05.523Z,23.1
2019-01-12T02:46:54.390Z,23.1
2019-01-12T02:47:45.037Z,23
2019-01-12T02:48:35.034Z,23
2019-01-12T02:49:25.414Z,23
2019-01-12T02:50:15.486Z,23
2019-01-12T02:51:04.951Z,22.9
2019-01-12T02:51:55.023Z,22.9
2019-01-12T02:52:45.080Z,22.9
2019-01-12T02:53:35.684Z,22.9
2019-01-12T02:54:25.159Z,22.9
2019-01-12T02:55:15.717Z,22.9
2019-01-12T02:56:05.611Z,22.9
2019-01-12T02:56:55.900Z,22.9
2019-01-12T02:57:45.485Z,22.9
2019-01-12T02:58:36.310Z,22.9
2019-01-12T02:59:25.806Z,22.9
2019-01-12T03:00:16.442Z,22.9
2019-01-12T03:01:05.975Z,22.9
2019-01-12T03:01:56.212Z,22.9
2019-01-12T03:02:45.752Z,22.9
2019-01-12T03:03:35.796Z,22.9
2019-01-12T03:04:25.703Z,22.9
2019-01-12T03:05:16.235Z,22.9
2019-01-12T03:06:06.607Z,22.9
2019-01-12T03:06:56.296Z,22.9
2019-01-12T03:07:45.592Z,22.9
2019-01-12T03:08:36.709Z,23
2019-01-12T03:09:26.148Z,23.1
2019-01-12T03:10:16.874Z,23
2019-01-12T03:11:07.151Z,23
2019-01-12T03:11:57.187Z,23
2019-01-12T03:12:46.144Z,23
2019-01-12T03:13:37.076Z,23
2019-01-12T03:14:26.044Z,22.9
2019-01-12T03:15:16.105Z,22.9
2019-01-12T03:16:06.711Z,22.9
2019-01-12T03:16:57.280Z,22.9
2019-01-12T03:17:47.091Z,22.9
2019-01-12T03:18:37.639Z,22.9
2019-01-12T03:19:27.486Z,22.9
2019-01-12T03:20:17.233Z,22.9
2019-01-12T03:21:07.641Z,22.9
2019-01-12T03:21:57.899Z,22.9
2019-01-12T03:22:47.439Z,22.9
2019-01-12T03:23:37.203Z,22.9
2019-01-12T03:24:27.599Z,22.9
2019-01-12T03:25:26.259Z,22.9
2019-01-12T03:26:07.105Z,22.9
2019-01-12T03:26:57.128Z,22.9
2019-01-12T03:27:46.949Z,22.9
2019-01-12T03:28:38.110Z,22.9
2019-01-12T03:29:27.488Z,22.9
2019-01-12T03:30:18.129Z,22.9
2019-01-12T03:31:08.502Z,23
2019-01-12T03:31:58.634Z,22.9
2019-01-12T03:32:47.466Z,22.9
2019-01-12T03:33:38.785Z,22.9
2019-01-12T03:34:28.154Z,23
2019-01-12T03:35:18.474Z,23
2019-01-12T03:36:07.716Z,23
2019-01-12T03:36:57.778Z,23
2019-01-12T03:37:48.698Z,23
2019-01-12T03:38:37.644Z,23.1
2019-01-12T03:39:28.500Z,23.1
2019-01-12T03:40:19.262Z,23.1
2019-01-12T03:41:08.937Z,23.1
2019-01-12T03:41:58.160Z,23.1
2019-01-12T03:42:48.471Z,23.1
2019-01-12T03:43:39.074Z,23.1
2019-01-12T03:44:28.621Z,23.1
2019-01-12T03:45:18.955Z,23.1
2019-01-12T03:46:08.806Z,23.1
2019-01-12T03:46:59.533Z,23.1
2019-01-12T03:47:49.442Z,23.1
2019-01-12T03:48:38.879Z,23.1
2019-01-12T03:49:29.207Z,23
2019-01-12T03:50:19.257Z,23
2019-01-12T03:51:08.457Z,23
2019-01-12T03:51:59.587Z,22.9
2019-01-12T03:52:49.989Z,22.9
2019-01-12T03:53:39.508Z,22.9
2019-01-12T03:54:29.246Z,22.9
2019-01-12T03:55:27.413Z,22.9
2019-01-12T03:56:09.122Z,22.9
2019-01-12T03:56:59.724Z,22.9
2019-01-12T03:57:50.064Z,22.9
2019-01-12T03:58:39.330Z,22.8
2019-01-12T03:59:29.843Z,22.8
2019-01-12T04:00:20.245Z,22.9
2019-01-12T04:01:10.614Z,22.8
2019-01-12T04:01:59.804Z,22.8
2019-01-12T04:02:50.929Z,22.9
2019-01-12T04:03:40.182Z,22.8
2019-01-12T04:04:30.505Z,22.8
2019-01-12T04:05:20.009Z,22.8
2019-01-12T04:06:10.854Z,22.9
2019-01-12T04:07:00.087Z,22.8
2019-01-12T04:07:50.713Z,22.8
2019-01-12T04:08:40.570Z,22.8
2019-01-12T04:09:30.553Z,22.8
2019-01-12T04:10:20.924Z,22.9
2019-01-12T04:11:11.241Z,22.9
2019-01-12T04:12:00.712Z,22.9
2019-01-12T04:12:50.787Z,22.9
2019-01-12T04:13:41.101Z,22.9
2019-01-12T04:14:30.875Z,22.9
2019-01-12T04:15:20.981Z,22.9
2019-01-12T04:16:11.270Z,22.9
2019-01-12T04:17:01.327Z,22.9
2019-01-12T04:17:51.178Z,23
2019-01-12T04:18:41.127Z,23
2019-01-12T04:19:31.231Z,23
2019-01-12T04:20:21.041Z,23
2019-01-12T04:21:10.487Z,23
2019-01-12T04:22:01.657Z,23
2019-01-12T04:22:51.775Z,23.1
2019-01-12T04:23:41.545Z,23.1
2019-01-12T04:24:31.889Z,23
2019-01-12T04:25:39.787Z,23.1
2019-01-12T04:26:11.387Z,23.1
2019-01-12T04:27:02.018Z,23
2019-01-12T04:27:51.552Z,23
2019-01-12T04:28:41.671Z,23
2019-01-12T04:29:31.689Z,23
2019-01-12T04:30:22.029Z,23
2019-01-12T04:31:11.128Z,23
2019-01-12T04:32:01.589Z,22.9
2019-01-12T04:32:50.897Z,23
2019-01-12T04:33:41.689Z,22.9
2019-01-12T04:34:32.506Z,22.9
2019-01-12T04:35:22.565Z,22.9
2019-01-12T04:36:12.127Z,22.9
2019-01-12T04:37:02.104Z,22.9
2019-01-12T04:37:52.742Z,22.9
2019-01-12T04:38:41.998Z,22.9
2019-01-12T04:39:33.136Z,22.9
2019-01-12T04:40:22.429Z,22.9
2019-01-12T04:41:12.980Z,22.9
2019-01-12T04:42:03.013Z,22.9
2019-01-12T04:42:52.889Z,22.9
2019-01-12T04:43:42.831Z,22.9
2019-01-12T04:44:32.594Z,22.9
2019-01-12T04:45:22.953Z,22.9
2019-01-12T04:46:13.371Z,22.9
2019-01-12T05:03:27.032Z,22.8
2019-01-12T05:04:16.293Z,22.8
2019-01-12T05:05:08.341Z,22.8
2019-01-12T05:07:08.092Z,22.8
2019-01-12T05:07:58.649Z,22.9
2019-01-12T05:08:34.874Z,22.9
2019-01-12T05:09:22.701Z,22.9
2019-01-12T05:10:14.050Z,22.9
2019-01-12T05:11:02.990Z,22.9
2019-01-12T05:12:40.309Z,22.9
2019-01-12T05:12:52.465Z,22.9
2019-01-12T05:13:42.626Z,22.9
2019-01-12T05:14:36.192Z,22.9
2019-01-12T05:15:37.243Z,22.9
2019-01-12T05:16:27.979Z,23
2019-01-12T05:17:53.035Z,23
2019-01-12T05:18:44.024Z,23
2019-01-12T05:20:16.770Z,23
2019-01-12T05:20:28.686Z,23
2019-01-12T05:21:33.351Z,23
2019-01-12T05:22:08.951Z,22.9
2019-01-12T05:23:13.479Z,22.9
2019-01-12T09:17:49.340Z,21.8
2019-01-12T09:18:39.393Z,21.8
2019-01-12T09:19:29.762Z,21.8
2019-01-12T09:20:19.845Z,21.8
2019-01-12T09:21:09.850Z,21.8
2019-01-12T09:21:59.658Z,21.8
2019-01-12T09:22:50.214Z,21.8
2019-01-12T09:23:40.025Z,21.8
2019-01-12T09:24:30.045Z,21.8
2019-01-12T09:25:20.417Z,21.8
2019-01-12T09:26:10.205Z,21.8
2019-01-12T09:26:59.942Z,21.7
2019-01-12T09:27:50.294Z,21.7
2019-01-12T09:28:40.112Z,21.6
2019-01-12T09:29:30.389Z,21.6
2019-01-12T09:30:19.372Z,21.6
2019-01-12T09:31:10.210Z,21.6
2019-01-12T09:31:59.712Z,21.6
2019-01-12T09:32:50.618Z,21.6
2019-01-12T09:33:40.169Z,21.6
2019-01-12T09:34:31.105Z,21.6
2019-01-12T09:35:20.802Z,21.6
2019-01-12T09:36:10.874Z,21.6
2019-01-12T09:37:00.150Z,21.6
2019-01-12T09:37:50.494Z,21.6
2019-01-12T09:38:39.974Z,21.6
2019-01-12T09:39:30.595Z,21.4
2019-01-12T09:40:21.517Z,21.2
2019-01-12T09:41:11.190Z,20.7
2019-01-12T09:42:01.522Z,20.4
2019-01-12T09:42:51.611Z,20.2
2019-01-12T09:43:41.073Z,20.1
2019-01-12T09:44:31.260Z,20
2019-01-12T09:45:21.286Z,19.9
2019-01-12T09:46:11.048Z,20
2019-01-12T09:47:01.097Z,20
2019-01-12T09:47:51.175Z,20.1
2019-01-12T09:48:40.714Z,20.1
2019-01-12T09:49:30.760Z,20.3
2019-01-12T09:50:20.631Z,20.3
2019-01-12T09:51:11.400Z,20.4
2019-01-12T09:52:01.456Z,20.5
2019-01-12T09:52:51.572Z,20.6
2019-01-12T09:53:41.832Z,20.6
2019-01-12T09:54:31.682Z,20.7
2019-01-12T09:55:21.132Z,20.8
2019-01-12T09:56:11.942Z,20.8
2019-01-12T09:57:02.281Z,20.9
2019-01-12T09:57:51.899Z,20.9
2019-01-12T09:58:42.457Z,21
2019-01-12T09:59:34.004Z,21
2019-01-12T10:00:21.972Z,21
2019-01-12T10:01:12.269Z,21
2019-01-12T10:02:03.037Z,21.1
2019-01-12T10:02:52.876Z,21
2019-01-12T10:03:41.964Z,21
2019-01-12T10:04:32.799Z,21.1
2019-01-12T10:07:02.735Z,21.2
2019-01-12T10:07:53.075Z,21.2
2019-01-12T10:08:42.509Z,21.2
2019-01-12T10:09:33.123Z,21.2
2019-01-12T10:20:23.880Z,21.2
2019-01-12T10:22:52.683Z,21.2
2019-01-12T10:23:43.000Z,21.2
2019-01-12T10:24:34.413Z,21.3
2019-01-12T10:25:24.490Z,21.3
2019-01-12T10:26:14.560Z,21.3
2019-01-12T10:27:05.452Z,21.2
2019-01-12T10:27:54.635Z,21.2
2019-01-12T10:28:44.459Z,21.2
2019-01-12T10:29:34.493Z,21.2
2019-01-12T10:30:23.987Z,21.2
2019-01-12T10:31:14.150Z,21.2
2019-01-12T10:32:04.640Z,21.2
2019-01-12T10:32:55.079Z,21.2
2019-01-12T10:33:44.819Z,21.2
2019-01-12T10:34:35.097Z,21.2
2019-01-12T10:35:24.885Z,21.3
2019-01-12T10:36:14.954Z,21.3
2019-01-12T10:37:03.897Z,21.3
2019-01-12T10:37:54.785Z,21.3
2019-01-12T10:38:45.081Z,21.3
2019-01-12T10:39:35.132Z,21.3
2019-01-12T10:40:24.787Z,21.3
2019-01-12T10:41:15.622Z,21.3
2019-01-12T10:42:05.031Z,21.3
2019-01-12T10:42:55.714Z,21.3
2019-01-12T10:43:45.180Z,21.3
2019-01-12T10:44:35.526Z,21.3
2019-01-12T10:45:25.283Z,21.3
2019-01-12T10:46:14.786Z,21.3
2019-01-12T10:47:05.671Z,21.3
2019-01-12T10:47:56.014Z,21.3
2019-01-12T10:48:45.228Z,21.3
2019-01-12T10:49:35.012Z,21.2
2019-01-12T10:50:25.651Z,21.2
2019-01-12T10:51:15.469Z,21.2
2019-01-12T10:52:05.466Z,21.3
2019-01-12T10:52:55.789Z,21.3
2019-01-12T10:55:12.347Z,21.4
2019-01-12T10:56:01.617Z,21.4
2019-01-12T10:56:52.308Z,21.4
2019-01-12T10:57:42.042Z,21.3
2019-01-12T10:58:32.347Z,21.3
2019-01-12T10:59:22.093Z,21.3
2019-01-12T11:00:10.823Z,21.3
2019-01-12T11:01:02.263Z,21.3
2019-01-12T11:01:52.526Z,21.3
2019-01-12T11:02:41.806Z,21.3
2019-01-12T11:03:32.415Z,21.3
2019-01-12T11:04:23.015Z,21.3
2019-01-12T11:05:12.280Z,21.3
2019-01-12T11:06:02.300Z,21.2
2019-01-12T11:06:52.927Z,21.2
2019-01-12T11:07:44.305Z,21.2
2019-01-12T11:18:32.967Z,21.2
2019-01-12T11:19:23.202Z,21.2
2019-01-12T11:20:13.524Z,21.2
2019-01-12T11:21:04.133Z,21.2
2019-01-12T11:21:53.904Z,21.2
2019-01-12T11:22:43.685Z,21.2
2019-01-12T11:23:33.737Z,21.2
2019-01-12T11:24:23.523Z,21.2
2019-01-12T11:25:14.144Z,21.2
2019-01-12T11:26:03.922Z,21.3
2019-01-12T11:26:54.550Z,21.3
2019-01-12T11:27:43.769Z,21.3
2019-01-12T11:28:33.824Z,21.3
2019-01-12T11:29:23.859Z,21.3
2019-01-12T11:30:14.513Z,21.3
2019-01-12T11:31:04.549Z,21.3
2019-01-12T11:31:53.819Z,21.3
2019-01-12T11:32:44.644Z,21.3
2019-01-12T11:33:33.959Z,21.3
2019-01-12T11:34:24.294Z,21.3
2019-01-12T11:35:14.332Z,21.3
2019-01-12T11:36:04.118Z,21.3
2019-01-12T11:36:53.468Z,21.3
2019-01-12T11:37:43.583Z,21.4
2019-01-12T11:38:33.285Z,21.3
2019-01-12T11:39:23.966Z,21.3
2019-01-12T11:40:13.928Z,21.3
2019-01-12T11:41:04.291Z,21.3
2019-01-12T11:41:54.741Z,21.3
2019-01-12T11:42:45.664Z,21.3
2019-01-12T11:43:34.635Z,21.3
2019-01-12T11:44:24.678Z,21.3
2019-01-12T11:45:15.010Z,21.3
2019-01-12T11:46:05.603Z,21.2
2019-01-12T11:46:55.907Z,21.2
2019-01-12T11:47:45.153Z,21.2
2019-01-12T11:48:35.468Z,21.2
2019-01-12T11:49:25.528Z,21.2
2019-01-12T11:50:15.646Z,21.2
2019-01-12T11:51:05.635Z,21.2
2019-01-12T11:51:55.394Z,21.2
2019-01-12T11:52:46.060Z,21.2
2019-01-12T11:53:35.623Z,21.3
2019-01-12T11:54:25.896Z,21.2
2019-01-12T11:55:15.940Z,21.3
2019-01-12T11:56:05.696Z,21.3
2019-01-12T11:56:55.558Z,21.3
2019-01-12T11:57:46.222Z,21.3
2019-01-12T11:58:37.101Z,21.3
2019-01-12T11:59:26.057Z,21.3
2019-01-12T12:00:15.514Z,21.3
2019-01-12T12:01:05.077Z,21.3
2019-01-12T12:01:55.904Z,21.3
2019-01-12T12:02:46.002Z,21.3
2019-01-12T12:03:35.562Z,21.3
2019-01-12T12:04:25.316Z,21.3
2019-01-12T12:05:17.094Z,21.3
2019-01-12T12:06:05.447Z,21.3
2019-01-12T12:06:55.777Z,21.4
2019-01-12T12:07:46.079Z,21.4
2019-01-12T12:08:36.860Z,21.4
2019-01-12T12:09:27.484Z,21.4
2019-01-12T12:10:16.956Z,21.4
2019-01-12T12:11:06.464Z,21.3
2019-01-12T12:11:57.355Z,21.3
2019-01-12T12:12:47.686Z,21.3
2019-01-12T12:13:37.728Z,21.3
2019-01-12T12:14:27.259Z,21.3
2019-01-12T12:15:17.327Z,21.3
2019-01-12T12:16:10.157Z,21.3
2019-01-12T12:16:57.423Z,21.3
2019-01-12T12:17:48.018Z,21.3
2019-01-12T12:18:38.079Z,21.3
2019-01-12T12:19:28.161Z,21.3
2019-01-12T12:20:18.258Z,21.3
2019-01-12T12:21:08.302Z,21.3
2019-01-12T12:21:58.080Z,21.3
2019-01-12T12:22:48.087Z,21.2
2019-01-12T12:23:36.758Z,21.3
2019-01-12T12:24:27.948Z,21.3
2019-01-12T12:25:17.736Z,21.3
2019-01-12T12:26:08.338Z,21.3
2019-01-12T12:26:58.240Z,21.3
2019-01-12T12:27:47.893Z,21.3
2019-01-12T12:28:37.712Z,21.3
2019-01-12T12:29:28.308Z,21.3
2019-01-12T12:30:17.788Z,21.3
2019-01-12T12:31:08.110Z,21.3
2019-01-12T12:31:58.554Z,21.3
2019-01-12T12:32:48.842Z,21.3
2019-01-12T12:33:36.920Z,21.3
2019-01-12T12:34:28.691Z,21.3
2019-01-12T12:35:18.985Z,21.3
2019-01-12T12:36:08.194Z,21.3
2019-01-12T12:36:58.565Z,21.2
2019-01-12T12:37:48.612Z,21.3
2019-01-12T12:38:38.912Z,21.2
2019-01-12T12:39:29.265Z,21.2
2019-01-12T12:40:18.077Z,21.3
2019-01-12T12:41:08.922Z,21.3
2019-01-12T12:41:58.537Z,21.3
2019-01-12T12:42:49.520Z,21.3
2019-01-12T12:43:39.575Z,21.3
2019-01-12T12:44:29.942Z,21.3
2019-01-12T12:45:18.921Z,21.3
2019-01-12T12:46:09.777Z,21.3
2019-01-12T12:46:59.299Z,21.3
2019-01-12T12:47:49.884Z,21.3
2019-01-12T12:48:40.168Z,21.3
2019-01-12T12:49:29.946Z,21.3
2019-01-12T12:50:19.194Z,21.3
2019-01-12T12:51:09.503Z,21.3
2019-01-12T12:51:59.966Z,21.3
2019-01-12T12:52:49.360Z,21.4
2019-01-12T12:53:41.126Z,21.3
2019-01-12T12:54:29.791Z,21.4
2019-01-12T12:55:19.567Z,21.3
2019-01-12T12:56:10.693Z,21.4
2019-01-12T12:56:59.649Z,21.4
2019-01-12T12:57:50.313Z,21.4
2019-01-12T12:58:39.790Z,21.4
2019-01-12T12:59:29.953Z,21.4
2019-01-12T13:00:20.238Z,21.4
2019-01-12T13:01:10.766Z,21.4
2019-01-12T13:02:00.872Z,21.3
2019-01-12T13:02:51.103Z,21.4
2019-01-12T13:03:40.670Z,21.3
2019-01-12T13:04:31.371Z,21.3
2019-01-12T13:05:20.521Z,21.3
2019-01-12T13:06:10.281Z,21.3
2019-01-12T13:07:00.401Z,21.3
2019-01-12T13:07:51.218Z,21.3
2019-01-12T13:08:41.291Z,21.3
2019-01-12T13:09:31.401Z,21.3
2019-01-12T13:10:21.410Z,21.3
2019-01-12T13:11:10.118Z,21.3
2019-01-12T13:12:01.515Z,21.3
2019-01-12T13:12:51.099Z,21.3
2019-01-12T13:13:41.358Z,21.3
2019-01-12T13:14:31.684Z,21.3
2019-01-12T13:15:21.499Z,21.4
2019-01-12T13:16:11.835Z,21.4
2019-01-12T13:17:01.905Z,21.4
2019-01-12T13:17:50.563Z,21.4
2019-01-12T13:18:41.707Z,21.4
2019-01-12T13:19:31.275Z,21.4
2019-01-12T13:20:23.032Z,21.4
2019-01-12T13:21:11.920Z,21.4
2019-01-12T13:22:01.957Z,21.4
2019-01-12T13:22:53.368Z,21.4
2019-01-12T13:23:42.079Z,21.4
2019-01-12T13:24:32.408Z,21.4
2019-01-12T13:25:21.681Z,21.4
2019-01-12T13:26:12.524Z,21.4
2019-01-12T13:27:02.931Z,21.4
2019-01-12T13:27:52.079Z,21.4
2019-01-12T13:28:42.119Z,21.4
2019-01-12T13:29:32.444Z,21.4
2019-01-12T13:30:22.523Z,21.4
2019-01-12T13:31:12.301Z,21.4
2019-01-12T13:32:02.702Z,21.4
2019-01-12T13:32:52.401Z,21.4
2019-01-12T13:33:41.958Z,21.4
2019-01-12T13:34:32.808Z,21.4
2019-01-12T13:35:22.343Z,21.4
2019-01-12T13:36:12.646Z,21.4
2019-01-12T13:37:02.961Z,21.4
2019-01-12T13:37:53.635Z,21.4
2019-01-12T13:38:42.536Z,21.4
2019-01-12T13:39:38.776Z,21.4
2019-01-12T13:40:24.476Z,21.4
2019-01-12T13:41:13.373Z,21.4
2019-01-12T13:42:02.570Z,21.4
2019-01-12T13:42:52.853Z,21.4
2019-01-12T13:43:43.426Z,21.4
2019-01-12T13:44:33.226Z,21.4
2019-01-12T13:45:24.101Z,21.4
2019-01-12T13:46:13.328Z,21.4
2019-01-12T13:47:03.655Z,21.4
2019-01-12T13:47:54.026Z,21.4
2019-01-12T13:48:43.835Z,21.4
2019-01-12T13:49:33.845Z,21.4
2019-01-12T13:50:22.869Z,21.4
2019-01-12T13:51:13.945Z,21.3
2019-01-12T13:52:04.050Z,21.3
2019-01-12T13:52:54.660Z,21.3
2019-01-12T13:53:42.815Z,21.3
2019-01-12T13:54:34.553Z,21.3
2019-01-12T13:55:24.599Z,21.3
2019-01-12T13:56:14.017Z,21.3
2019-01-12T13:57:04.624Z,21.3
2019-01-12T13:57:55.523Z,21.3
2019-01-12T13:58:45.012Z,21.3
2019-01-12T13:59:34.272Z,21.3
2019-01-12T14:00:24.052Z,21.3
2019-01-12T14:01:14.927Z,21.3
2019-01-12T14:02:05.270Z,21.3
2019-01-12T14:02:54.966Z,21.3
2019-01-12T14:03:44.816Z,21.2
2019-01-12T14:04:34.344Z,21.2
2019-01-12T14:05:25.535Z,21.2
2019-01-12T14:06:15.250Z,21.2
2019-01-12T14:07:06.565Z,21.2
2019-01-12T14:08:02.598Z,21.2
2019-01-12T14:08:44.854Z,21.2
2019-01-12T14:10:24.767Z,21.2
2019-01-12T14:17:06.049Z,21.1
2019-01-12T14:17:55.816Z,21.1
2019-01-12T14:18:45.643Z,21.1
2019-01-12T14:19:36.188Z,21.1
2019-01-12T14:20:25.994Z,21.1
2019-01-12T14:21:16.073Z,21.1
2019-01-12T14:22:06.118Z,21.1
2019-01-12T14:22:56.685Z,21.1
2019-01-12T14:23:46.185Z,21
2019-01-12T14:24:36.848Z,21.1
2019-01-12T14:25:27.788Z,21
2019-01-12T14:26:15.809Z,21
2019-01-12T14:27:06.135Z,21
2019-01-12T14:28:00.543Z,21
2019-01-12T14:28:46.015Z,21
2019-01-12T14:29:36.581Z,21
2019-01-12T14:30:26.631Z,21
2019-01-12T14:31:16.978Z,21
2019-01-12T14:32:07.300Z,20.9
2019-01-12T14:32:57.146Z,20.9
2019-01-12T14:33:47.188Z,21
2019-01-12T14:34:36.685Z,20.9
2019-01-12T14:35:26.452Z,20.9
2019-01-12T14:36:16.531Z,20.9
2019-01-12T14:37:06.832Z,20.9
2019-01-12T14:37:57.737Z,20.9
2019-01-12T14:38:47.280Z,20.9
2019-01-12T14:39:36.990Z,20.9
2019-01-12T14:40:27.655Z,20.9
2019-01-12T14:41:17.175Z,20.9
2019-01-12T14:42:07.177Z,20.9
2019-01-12T14:42:57.487Z,20.9
2019-01-12T14:43:47.560Z,20.9
2019-01-12T14:44:36.919Z,20.9
2019-01-12T14:45:27.672Z,20.9
2019-01-12T14:46:17.472Z,20.9
2019-01-12T14:47:57.620Z,20.9
2019-01-12T14:48:47.659Z,20.9
2019-01-12T14:49:38.251Z,20.9
2019-01-12T14:50:27.737Z,20.9
2019-01-12T14:51:18.171Z,20.8
2019-01-12T14:52:07.619Z,20.8
2019-01-12T14:52:57.374Z,20.8
2019-01-12T14:53:48.269Z,20.8
2019-01-12T14:54:38.866Z,20.8
2019-01-12T14:55:28.947Z,20.8
2019-01-12T14:56:17.664Z,20.8
2019-01-12T14:57:08.490Z,20.8
2019-01-12T14:58:48.869Z,20.8
2019-01-12T14:59:37.952Z,20.8
2019-01-12T15:00:28.501Z,20.8
2019-01-12T15:01:19.044Z,20.8
2019-01-12T15:02:07.771Z,20.8
2019-01-12T15:02:58.571Z,20.7
2019-01-12T15:03:49.503Z,20.8
2019-01-12T15:04:39.163Z,20.7
2019-01-12T15:05:29.617Z,20.7
2019-01-12T15:06:19.468Z,20.7
2019-01-12T15:07:09.395Z,20.7
2019-01-12T15:07:59.212Z,20.7
2019-01-12T15:08:49.278Z,20.7
2019-01-12T15:09:39.326Z,20.7
2019-01-12T15:10:28.166Z,20.6
2019-01-12T15:11:19.185Z,20.6
2019-01-12T15:12:10.053Z,20.6
2019-01-12T15:12:59.838Z,20.6
2019-01-12T15:13:49.956Z,20.6
2019-01-12T15:14:40.225Z,20.6
2019-01-12T15:15:29.443Z,20.6
2019-01-12T15:16:19.768Z,20.6
2019-01-12T15:17:24.485Z,20.6
2019-01-12T15:17:59.607Z,20.6
2019-01-12T15:18:50.487Z,20.6
2019-01-12T15:19:40.253Z,20.6
2019-01-12T15:20:30.071Z,20.6
2019-01-12T15:21:19.546Z,20.6
2019-01-12T15:22:10.449Z,20.7
2019-01-12T15:23:00.516Z,20.6
2019-01-12T15:23:50.628Z,20.7
2019-01-12T15:24:40.618Z,20.6
2019-01-12T15:25:30.406Z,20.7
2019-01-12T15:26:19.693Z,20.8
2019-01-12T15:27:10.053Z,20.8
2019-01-12T15:28:00.115Z,20.8
2019-01-12T15:28:50.433Z,20.9
2019-01-12T15:29:40.470Z,20.9
2019-01-12T15:30:31.038Z,20.9
2019-01-12T15:31:23.400Z,21
2019-01-12T15:32:11.403Z,21
2019-01-12T15:33:00.913Z,21.1
2019-01-12T15:33:50.446Z,21.1
2019-01-12T15:34:41.288Z,21.1
2019-01-12T15:37:11.448Z,21.2
2019-01-12T15:38:01.258Z,21.2
2019-01-12T15:38:51.310Z,21.3
2019-01-12T15:39:41.625Z,21.3
2019-01-12T15:40:30.845Z,21.3
2019-01-12T15:41:21.462Z,21.3
2019-01-12T15:42:10.976Z,21.3
2019-01-12T15:43:01.557Z,21.3
2019-01-12T15:43:51.405Z,21.3
2019-01-12T15:44:41.685Z,21.4
2019-01-12T15:45:32.316Z,21.4
2019-01-12T15:46:22.352Z,21.4
2019-01-12T15:47:11.145Z,21.4
2019-01-12T15:48:01.362Z,21.4
2019-01-12T15:48:51.749Z,21.4
2019-01-12T15:49:42.296Z,21.4
2019-01-12T15:50:31.559Z,21.5
2019-01-12T15:51:22.684Z,21.5
2019-01-12T15:52:12.205Z,21.5
2019-01-12T15:53:04.044Z,21.5
2019-01-12T15:53:52.301Z,21.6
2019-01-12T15:54:42.082Z,21.5
2019-01-12T15:55:31.641Z,21.6
2019-01-12T15:56:22.469Z,21.6
2019-01-12T15:57:11.964Z,21.6
2019-01-12T15:58:03.143Z,21.6
2019-01-12T15:58:52.979Z,21.6
2019-01-12T15:59:42.698Z,21.7
2019-01-12T16:00:33.113Z,21.7
2019-01-12T16:01:22.256Z,21.8
2019-01-12T16:02:12.596Z,21.8
2019-01-12T16:03:02.781Z,21.8
2019-01-12T16:03:53.018Z,21.8
2019-01-12T16:04:43.318Z,21.9
2019-01-12T16:05:32.576Z,21.9
2019-01-12T16:06:22.751Z,21.9
2019-01-12T16:07:12.439Z,21.9
2019-01-12T16:08:02.808Z,21.9
2019-01-12T16:08:53.395Z,22
2019-01-12T16:09:42.893Z,22.1
2019-01-12T16:10:33.238Z,22.1
2019-01-12T16:11:23.016Z,22.1
2019-01-12T16:12:13.113Z,22.1
2019-01-12T16:13:03.192Z,22.2
2019-01-12T16:13:53.380Z,22.1
2019-01-12T16:14:43.979Z,22.1
2019-01-12T16:15:33.787Z,22.1